createdAt,value
2022-11-21T00:01:29.621Z,60.30
2022-11-21T00:03:56.607Z,64.00
2022-11-21T00:06:23.978Z,56.60
2022-11-21T00:08:51.310Z,59.97
2022-11-21T00:11:18.897Z,64.50
2022-11-21T00:13:45.911Z,66.00
2022-11-21T00:16:15.398Z,57.33
2022-11-21T00:18:44.510Z,56.97
2022-11-21T00:21:17.071Z,61.15
2022-11-21T00:23:45.784Z,56.85
2022-11-21T00:26:14.432Z,60.55
2022-11-21T00:28:42.017Z,58.30
2022-11-21T00:31:10.227Z,55.58
2022-11-21T00:33:39.098Z,53.05
2022-11-21T00:36:09.967Z,51.85
2022-11-21T00:38:37.654Z,55.13
2022-11-21T00:41:08.290Z,56.55
2022-11-21T00:43:35.424Z,56.20
2022-11-21T00:46:03.427Z,54.35
2022-11-21T00:48:31.731Z,58.78
2022-11-21T00:51:00.672Z,57.28
2022-11-21T00:53:28.881Z,65.82
2022-11-21T00:55:56.516Z,60.88
2022-11-21T00:58:23.650Z,54.92
2022-11-21T01:00:51.066Z,58.50
2022-11-21T01:03:20.361Z,63.15
2022-11-21T01:05:47.597Z,57.30
2022-11-21T01:08:14.518Z,52.65
2022-11-21T01:10:41.761Z,58.78
2022-11-21T01:13:11.363Z,66.20
2022-11-21T01:15:38.660Z,58.20
2022-11-21T01:18:05.926Z,56.38
2022-11-21T01:20:33.146Z,59.13
2022-11-21T01:23:00.050Z,57.20
2022-11-21T01:25:27.509Z,56.00
2022-11-21T01:27:54.465Z,59.42
2022-11-21T01:30:21.711Z,57.65
2022-11-21T01:32:50.148Z,54.00
2022-11-21T01:35:18.607Z,56.45
2022-11-21T01:37:49.631Z,61.42
2022-11-21T01:40:21.784Z,53.92
2022-11-21T01:43:02.586Z,53.75
2022-11-21T01:45:55.843Z,60.33
2022-11-21T01:48:28.422Z,58.90
2022-11-21T01:50:59.697Z,60.83
2022-11-21T01:53:26.921Z,62.38
2022-11-21T01:55:54.375Z,59.25
2022-11-21T01:58:22.944Z,65.07
2022-11-21T02:00:50.784Z,65.15
2022-11-21T02:03:24.926Z,64.57
2022-11-21T02:05:54.058Z,64.07
2022-11-21T02:08:22.413Z,64.32
2022-11-21T02:11:23.466Z,64.65
2022-11-21T02:13:53.171Z,60.10
2022-11-21T02:16:20.420Z,71.45
2022-11-21T02:18:47.371Z,63.17
2022-11-21T02:21:29.559Z,62.92
2022-11-21T02:24:17.291Z,69.30
2022-11-21T02:26:48.021Z,56.75
2022-11-21T02:29:18.157Z,69.93
2022-11-21T02:31:45.415Z,62.97
2022-11-21T02:34:12.461Z,62.17
2022-11-21T02:36:45.721Z,60.40
2022-11-21T02:39:27.289Z,64.97
2022-11-21T02:42:05.726Z,62.78
2022-11-21T02:45:08.235Z,67.13
2022-11-21T02:47:38.662Z,61.58
2022-11-21T02:50:19.271Z,62.10
2022-11-21T02:52:46.602Z,58.42
2022-11-21T02:55:15.355Z,54.90
2022-11-21T02:57:42.965Z,56.85
2022-11-21T03:00:11.518Z,58.28
2022-11-21T03:02:38.914Z,54.13
2022-11-21T03:05:10.246Z,66.95
2022-11-21T03:07:37.949Z,62.55
2022-11-21T03:10:05.773Z,62.55
2022-11-21T03:12:35.621Z,54.80
2022-11-21T03:15:03.151Z,64.68
2022-11-21T03:17:30.348Z,60.03
2022-11-21T03:19:58.195Z,66.57
2022-11-21T03:22:28.546Z,64.32
2022-11-21T03:24:55.490Z,60.58
2022-11-21T03:27:22.830Z,58.05
2022-11-21T03:29:49.723Z,63.70
2022-11-21T03:32:16.980Z,69.00
2022-11-21T03:34:44.492Z,60.65
2022-11-21T03:37:11.783Z,62.80
2022-11-21T03:39:38.735Z,60.05
2022-11-21T03:42:05.999Z,63.50
2022-11-21T03:44:35.190Z,64.95
2022-11-21T03:47:05.190Z,64.65
2022-11-21T03:49:32.194Z,62.03
2022-11-21T03:51:59.598Z,56.70
2022-11-21T03:54:26.815Z,58.85
2022-11-21T03:56:54.625Z,59.83
2022-11-21T03:59:21.676Z,57.50
2022-11-21T04:01:49.063Z,55.83
2022-11-21T04:04:18.068Z,55.80
2022-11-21T04:06:48.160Z,58.70
2022-11-21T04:09:15.119Z,52.28
2022-11-21T04:11:42.316Z,53.28
2022-11-21T04:14:09.235Z,54.42
2022-11-21T04:16:36.798Z,56.67
2022-11-21T04:19:03.954Z,50.75
2022-11-21T04:21:31.410Z,49.67
2022-11-21T04:23:58.478Z,51.65
2022-11-21T04:26:25.755Z,55.08
2022-11-21T04:28:52.982Z,49.70
2022-11-21T04:31:20.341Z,52.75
2022-11-21T04:33:47.388Z,55.33
2022-11-21T04:36:14.777Z,52.60
2022-11-21T04:38:41.748Z,52.65
2022-11-21T04:41:09.269Z,57.67
2022-11-21T04:43:36.660Z,52.90
2022-11-21T04:46:03.985Z,51.75
2022-11-21T04:48:32.697Z,39.63
2022-11-21T04:51:00.092Z,31.08
2022-11-21T04:53:26.996Z,20.10
2022-11-21T04:55:56.495Z,14.18
2022-11-21T04:58:23.483Z,8.02
2022-11-21T05:00:50.821Z,8.00
2022-11-21T05:03:17.807Z,6.28
2022-11-21T05:05:47.690Z,4.75
2022-11-21T05:08:14.681Z,4.35
2022-11-21T05:11:02.091Z,6.10
2022-11-21T05:13:29.111Z,5.43
2022-11-21T05:15:57.534Z,5.85
2022-11-21T05:18:24.845Z,4.95
2022-11-21T05:20:52.135Z,5.15
2022-11-21T05:23:19.211Z,5.57
2022-11-21T05:25:46.517Z,4.65
2022-11-21T05:28:13.587Z,4.22
2022-11-21T05:30:40.831Z,4.03
2022-11-21T05:33:10.108Z,4.80
2022-11-21T05:35:42.934Z,3.58
2022-11-21T05:38:10.624Z,5.50
2022-11-21T05:40:37.881Z,11.63
2022-11-21T05:43:23.466Z,8.65
2022-11-21T05:45:51.192Z,8.50
2022-11-21T05:48:18.504Z,6.20
2022-11-21T05:50:49.709Z,8.30
2022-11-21T05:53:17.192Z,5.10
2022-11-21T05:55:45.034Z,4.70
2022-11-21T05:58:12.130Z,7.80
2022-11-21T06:00:39.756Z,4.13
2022-11-21T06:03:26.017Z,3.65
2022-11-21T06:06:08.965Z,4.88
2022-11-21T06:08:43.292Z,2.40
2022-11-21T06:11:13.103Z,3.30
2022-11-21T06:13:40.772Z,3.53
2022-11-21T06:16:10.584Z,4.97
2022-11-21T06:18:50.790Z,2.63
2022-11-21T06:21:28.851Z,5.00
2022-11-21T06:26:26.976Z,2.42
2022-11-21T06:28:55.106Z,1.70
2022-11-21T06:31:27.188Z,2.83
2022-11-21T06:33:58.902Z,2.83
2022-11-21T06:36:26.613Z,2.60
2022-11-21T06:38:55.255Z,3.75
2022-11-21T06:41:25.223Z,2.15
2022-11-21T06:43:52.731Z,2.30
2022-11-21T06:46:20.173Z,1.75
2022-11-21T06:48:47.207Z,5.05
2022-11-21T06:51:20.410Z,3.70
2022-11-21T06:53:48.799Z,1.63
2022-11-21T06:56:16.071Z,1.08
2022-11-21T06:58:45.452Z,1.20
2022-11-21T07:01:13.601Z,4.22
2022-11-21T07:03:40.720Z,1.02
2022-11-21T07:06:10.124Z,5.07
2022-11-21T07:08:37.342Z,1.38
2022-11-21T07:13:54.302Z,1.20
2022-11-21T07:16:26.443Z,1.73
2022-11-21T07:18:53.819Z,1.20
2022-11-21T07:21:23.665Z,1.42
2022-11-21T07:23:50.631Z,4.18
2022-11-21T07:26:21.010Z,2.28
2022-11-21T07:28:50.816Z,4.18
2022-11-21T07:31:18.088Z,2.40
2022-11-21T07:33:45.793Z,2.83
2022-11-21T07:36:16.131Z,3.78
2022-11-21T07:38:43.166Z,4.35
2022-11-21T07:41:10.612Z,4.55
2022-11-21T07:43:37.790Z,7.15
2022-11-21T07:46:05.215Z,1.90
2022-11-21T07:48:32.298Z,2.45
2022-11-21T07:50:59.566Z,2.13
2022-11-21T07:53:28.733Z,4.03
2022-11-21T07:55:59.057Z,3.83
2022-11-21T07:58:26.244Z,3.78
2022-11-21T08:00:53.873Z,1.05
2022-11-21T08:03:25.324Z,4.18
2022-11-21T08:05:55.285Z,1.20
2022-11-21T08:08:22.330Z,3.83
2022-11-21T08:10:51.489Z,1.42
2022-11-21T08:13:18.562Z,1.55
2022-11-21T08:15:45.920Z,2.38
2022-11-21T08:18:21.077Z,1.23
2022-11-21T08:20:48.661Z,3.22
2022-11-21T08:23:16.027Z,1.65
2022-11-21T08:25:43.858Z,4.43
2022-11-21T08:28:12.409Z,4.38
2022-11-21T08:30:40.771Z,3.97
2022-11-21T08:33:08.408Z,3.25
2022-11-21T08:35:37.808Z,3.83
2022-11-21T08:38:09.775Z,2.05
2022-11-21T08:40:37.127Z,2.28
2022-11-21T08:43:09.331Z,1.55
2022-11-21T08:45:38.123Z,5.03
2022-11-21T08:48:10.766Z,1.40
2022-11-21T08:50:40.281Z,2.90
2022-11-21T08:53:07.329Z,5.53
2022-11-21T08:55:37.254Z,1.38
2022-11-21T08:58:04.239Z,1.05
2022-11-21T09:00:31.708Z,1.83
2022-11-21T09:02:58.634Z,1.48
2022-11-21T09:05:25.873Z,2.10
2022-11-21T09:07:59.276Z,2.75
2022-11-21T09:10:27.606Z,1.23
2022-11-21T09:12:57.407Z,3.35
2022-11-21T09:15:43.306Z,3.78
2022-11-21T09:18:14.155Z,4.10
2022-11-21T09:20:44.735Z,3.58
2022-11-21T09:23:14.142Z,5.72
2022-11-21T09:25:42.464Z,1.33
2022-11-21T09:28:11.475Z,3.55
2022-11-21T09:30:42.420Z,4.40
2022-11-21T09:33:14.576Z,1.92
2022-11-21T09:35:48.082Z,2.78
2022-11-21T09:38:17.514Z,2.75
2022-11-21T09:40:48.884Z,3.00
2022-11-21T09:43:21.830Z,6.97
2022-11-21T09:45:59.200Z,6.90
2022-11-21T09:48:41.517Z,5.32
2022-11-21T09:51:13.947Z,4.40
2022-11-21T09:54:07.605Z,8.43
2022-11-21T09:56:41.219Z,3.75
2022-11-21T09:59:40.043Z,2.72
2022-11-21T10:02:16.075Z,2.88
2022-11-21T10:07:26.599Z,2.92
2022-11-21T10:10:24.738Z,3.28
2022-11-21T10:13:09.441Z,2.80
2022-11-21T10:18:47.010Z,2.03
2022-11-21T10:22:01.994Z,3.90
2022-11-21T10:24:57.693Z,2.75
2022-11-21T10:27:36.720Z,2.15
2022-11-21T10:30:20.700Z,2.97
2022-11-21T10:32:49.761Z,3.17
2022-11-21T10:35:29.235Z,1.17
2022-11-21T10:37:58.198Z,1.83
2022-11-21T10:40:28.643Z,2.85
2022-11-21T10:43:32.465Z,3.55
2022-11-21T10:45:59.787Z,4.47
2022-11-21T10:48:26.962Z,2.20
2022-11-21T10:51:18.750Z,4.35
2022-11-21T10:54:07.756Z,8.60
2022-11-21T10:56:37.127Z,2.60
2022-11-21T10:59:19.210Z,3.72
2022-11-21T11:01:56.148Z,1.75
2022-11-21T11:04:28.622Z,3.13
2022-11-21T11:07:00.299Z,5.35
2022-11-21T11:09:35.099Z,3.40
2022-11-21T11:12:46.802Z,4.28
2022-11-21T11:15:23.230Z,2.88
2022-11-21T11:18:05.622Z,1.67
2022-11-21T11:20:45.141Z,0.95
2022-11-21T11:23:25.240Z,6.10
2022-11-21T11:25:58.491Z,2.88
2022-11-21T11:28:27.428Z,3.65
2022-11-21T11:30:55.911Z,5.70
2022-11-21T11:33:39.928Z,2.40
2022-11-21T11:36:14.741Z,1.27
2022-11-21T11:38:59.691Z,3.90
2022-11-21T11:42:01.858Z,1.48
2022-11-21T11:45:25.964Z,2.20
2022-11-21T11:47:58.939Z,8.45
2022-11-21T11:50:32.599Z,2.42
2022-11-21T11:53:17.493Z,2.30
2022-11-21T11:56:00.128Z,0.30
2022-11-21T11:58:31.833Z,0.73
2022-11-21T12:01:44.017Z,1.48
2022-11-21T12:04:18.274Z,0.70
2022-11-21T12:07:46.680Z,1.27
2022-11-21T12:09:54.990Z,1.60
2022-11-21T12:12:47.130Z,2.22
2022-11-21T12:15:47.025Z,1.08
2022-11-21T12:18:20.143Z,1.95
2022-11-21T12:20:56.417Z,0.77
2022-11-21T12:23:56.036Z,3.30
2022-11-21T12:26:29.091Z,2.47
2022-11-21T12:29:24.275Z,1.65
2022-11-21T12:32:24.826Z,2.35
2022-11-21T12:35:28.987Z,3.53
2022-11-21T12:38:07.200Z,1.98
2022-11-21T12:41:25.726Z,9.02
2022-11-21T12:44:08.026Z,1.65
2022-11-21T12:47:23.377Z,3.97
2022-11-21T12:50:21.856Z,2.22
2022-11-21T12:53:16.339Z,1.50
2022-11-21T12:55:43.339Z,4.00
2022-11-21T12:58:19.714Z,0.52
2022-11-21T13:01:24.640Z,1.05
2022-11-21T13:03:59.847Z,1.30
2022-11-21T13:06:35.491Z,2.88
2022-11-21T13:09:08.171Z,1.70
2022-11-21T13:11:59.954Z,1.40
2022-11-21T13:14:42.311Z,1.15
2022-11-21T13:17:12.212Z,5.53
2022-11-21T13:19:50.546Z,3.33
2022-11-21T13:22:38.078Z,2.38
2022-11-21T13:25:33.921Z,1.27
2022-11-21T13:28:21.176Z,1.85
2022-11-21T13:30:58.122Z,1.30
2022-11-21T13:33:39.903Z,2.45
2022-11-21T13:36:13.812Z,1.88
2022-11-21T13:38:55.702Z,2.50
2022-11-21T13:41:53.865Z,2.40
2022-11-21T13:44:33.343Z,5.07
2022-11-21T13:47:10.489Z,3.40
2022-11-21T13:49:43.684Z,4.63
2022-11-21T13:52:20.167Z,3.78
2022-11-21T13:55:05.868Z,2.05
2022-11-21T13:57:45.993Z,3.83
2022-11-21T14:00:25.144Z,3.95
2022-11-21T14:03:01.161Z,1.77
2022-11-21T14:10:56.101Z,3.70
2022-11-21T14:13:47.053Z,1.75
2022-11-21T14:16:19.815Z,3.30
2022-11-21T14:18:47.664Z,7.93
2022-11-21T14:21:31.096Z,3.90
2022-11-21T14:24:04.515Z,2.55
2022-11-21T14:26:52.549Z,2.70
2022-11-21T14:29:24.104Z,3.15
2022-11-21T14:31:51.047Z,2.67
2022-11-21T14:34:44.742Z,7.55
2022-11-21T14:37:13.228Z,2.67
2022-11-21T14:39:44.950Z,2.00
2022-11-21T14:42:15.340Z,1.55
2022-11-21T14:44:45.934Z,2.88
2022-11-21T14:47:21.546Z,2.50
2022-11-21T14:50:00.870Z,3.75
2022-11-21T14:52:33.306Z,2.20
2022-11-21T14:55:34.400Z,2.30
2022-11-21T14:58:03.864Z,1.63
2022-11-21T15:01:03.211Z,4.32
2022-11-21T15:03:22.886Z,1.23
2022-11-21T15:06:07.397Z,1.73
2022-11-21T15:11:32.840Z,4.35
2022-11-21T15:14:15.346Z,3.80
2022-11-21T15:16:48.167Z,2.70
2022-11-21T15:19:25.910Z,6.10
2022-11-21T15:21:56.544Z,3.17
2022-11-21T15:24:43.419Z,3.75
2022-11-21T15:27:26.101Z,3.97
2022-11-21T15:30:11.375Z,3.03
2022-11-21T15:33:01.268Z,4.38
2022-11-21T15:35:48.126Z,1.75
2022-11-21T15:38:27.898Z,2.22
2022-11-21T15:41:01.604Z,2.20
2022-11-21T15:43:40.811Z,1.63
2022-11-21T15:46:15.481Z,2.67
2022-11-21T15:49:31.529Z,2.00
2022-11-21T15:52:12.807Z,3.13
2022-11-21T15:54:40.191Z,2.33
2022-11-21T15:57:09.165Z,2.42
2022-11-21T15:59:36.429Z,2.65
2022-11-21T16:02:03.554Z,4.15
2022-11-21T16:04:30.844Z,2.50
2022-11-21T16:07:00.325Z,1.88
2022-11-21T16:09:29.742Z,2.75
2022-11-21T16:11:56.976Z,434.02
2022-11-21T16:14:24.184Z,235.63
2022-11-21T16:16:51.118Z,156.45
2022-11-21T16:19:19.178Z,147.95
2022-11-21T16:21:46.260Z,29.70
2022-11-21T16:24:13.844Z,7.80
2022-11-21T16:26:40.878Z,15.65
2022-11-21T16:29:10.792Z,20.30
2022-11-21T16:31:38.020Z,19.10
2022-11-21T16:34:05.618Z,15.68
2022-11-21T16:36:32.854Z,10.80
2022-11-21T16:39:09.047Z,10.80
2022-11-21T16:41:39.477Z,7.78
2022-11-21T16:44:16.437Z,7.80
2022-11-21T16:46:48.511Z,8.95
2022-11-21T16:49:20.652Z,8.80
2022-11-21T16:51:47.750Z,9.77
2022-11-21T16:54:18.109Z,17.13
2022-11-21T16:56:47.107Z,11.55
2022-11-21T16:59:15.105Z,13.15
2022-11-21T17:01:43.460Z,14.15
2022-11-21T17:04:16.796Z,13.15
2022-11-21T17:06:47.016Z,8.70
2022-11-21T17:09:16.686Z,7.18
2022-11-21T17:11:44.555Z,6.82
2022-11-21T17:14:14.309Z,10.60
2022-11-21T17:16:42.213Z,36.05
2022-11-21T17:19:12.364Z,7.18
2022-11-21T17:21:39.496Z,8.82
2022-11-21T17:24:07.411Z,6.15
2022-11-21T17:26:38.617Z,6.20
2022-11-21T17:29:06.315Z,4.60
2022-11-21T17:31:34.802Z,3.97
2022-11-21T17:34:02.778Z,6.95
2022-11-21T17:36:31.247Z,6.75
2022-11-21T17:38:58.971Z,6.15
2022-11-21T17:41:27.411Z,5.82
2022-11-21T17:43:59.789Z,5.78
2022-11-21T17:46:29.037Z,6.85
2022-11-21T17:54:20.178Z,11.93
2022-11-21T17:56:53.916Z,8.63
2022-11-21T17:59:24.211Z,16.38
2022-11-21T18:01:54.434Z,12.55
2022-11-21T18:04:25.516Z,19.85
2022-11-21T18:06:53.583Z,12.70
2022-11-21T18:09:21.609Z,14.38
2022-11-21T18:11:49.672Z,12.73
2022-11-21T18:14:17.478Z,18.58
2022-11-21T18:16:52.581Z,18.40
2022-11-21T18:19:21.831Z,13.35
2022-11-21T18:21:50.583Z,11.20
2022-11-21T18:24:18.520Z,14.60
2022-11-21T18:26:47.558Z,16.60
2022-11-21T18:32:05.852Z,12.13
2022-11-21T18:34:33.830Z,17.50
2022-11-21T18:37:02.100Z,13.90
2022-11-21T18:39:31.697Z,22.60
2022-11-21T18:42:00.093Z,27.10
2022-11-21T18:44:28.079Z,23.17
2022-11-21T18:46:56.437Z,29.33
2022-11-21T18:49:24.182Z,30.90
2022-11-21T18:51:54.965Z,18.67
2022-11-21T18:54:22.943Z,26.80
2022-11-21T18:56:51.495Z,26.70
2022-11-21T18:59:19.542Z,24.30
2022-11-21T19:01:47.601Z,17.95
2022-11-21T19:04:15.664Z,20.73
2022-11-21T19:06:44.250Z,17.40
2022-11-21T19:09:15.292Z,20.27
2022-11-21T19:11:43.172Z,25.70
2022-11-21T19:14:13.560Z,24.88
2022-11-21T19:16:42.188Z,26.10
2022-11-21T19:22:05.054Z,27.17
2022-11-21T19:24:34.184Z,27.48
2022-11-21T19:27:02.464Z,33.30
2022-11-21T19:29:32.188Z,24.15
2022-11-21T19:32:00.832Z,28.98
2022-11-21T19:34:29.151Z,17.58
2022-11-21T19:36:57.301Z,18.77
2022-11-21T19:39:25.204Z,16.75
2022-11-21T19:41:53.544Z,17.70
2022-11-21T19:44:26.097Z,17.15
2022-11-21T19:46:54.515Z,23.80
2022-11-21T19:49:22.515Z,16.20
2022-11-21T19:51:52.072Z,12.30
2022-11-21T19:54:21.514Z,14.23
2022-11-21T19:56:49.541Z,20.05
2022-11-21T19:59:16.849Z,18.42
2022-11-21T20:01:51.151Z,17.65
2022-11-21T20:04:24.253Z,14.98
2022-11-21T20:06:52.442Z,19.67
2022-11-21T20:09:22.557Z,16.63
2022-11-21T20:11:55.455Z,20.42
2022-11-21T20:14:23.357Z,19.63
2022-11-21T20:16:53.482Z,23.23
2022-11-21T20:19:23.320Z,20.38
2022-11-21T20:21:55.124Z,25.40
2022-11-21T20:24:23.362Z,21.77
2022-11-21T20:26:53.488Z,24.15
2022-11-21T20:29:24.983Z,24.50
2022-11-21T20:31:54.899Z,19.95
2022-11-21T20:34:24.264Z,22.70
2022-11-21T20:36:54.227Z,24.73
2022-11-21T20:39:22.468Z,24.65
2022-11-21T20:41:53.299Z,22.40
2022-11-21T20:47:13.237Z,24.80
2022-11-21T20:50:05.022Z,23.33
2022-11-21T20:55:22.467Z,31.65
2022-11-21T20:57:50.422Z,26.95
2022-11-21T21:00:19.398Z,39.75
2022-11-21T21:02:47.588Z,36.05
2022-11-21T21:05:17.155Z,34.10
2022-11-21T21:07:45.067Z,43.90
2022-11-21T21:10:12.897Z,41.08
2022-11-21T21:12:45.721Z,37.90
2022-11-21T21:15:16.192Z,40.33
2022-11-21T21:17:44.108Z,43.00
2022-11-21T21:20:11.942Z,48.67
2022-11-21T21:22:39.877Z,41.58
2022-11-21T21:25:07.850Z,41.03
2022-11-21T21:27:35.487Z,38.03
2022-11-21T21:30:06.064Z,37.38
2022-11-21T21:32:36.038Z,40.28
2022-11-21T21:35:03.097Z,48.22
2022-11-21T21:37:30.496Z,48.80
2022-11-21T21:39:57.507Z,43.80
2022-11-21T21:42:25.168Z,52.47
2022-11-21T21:44:52.251Z,39.60
2022-11-21T21:47:21.957Z,39.20
2022-11-21T21:49:49.143Z,37.20
2022-11-21T21:52:17.679Z,41.28
2022-11-21T21:54:44.636Z,41.67
2022-11-21T21:57:11.964Z,38.85
2022-11-21T21:59:38.963Z,38.42
2022-11-21T22:02:06.752Z,37.05
2022-11-21T22:04:34.124Z,34.90
2022-11-21T22:07:01.526Z,36.65
2022-11-21T22:09:30.029Z,39.72
2022-11-21T22:11:57.600Z,36.67
2022-11-21T22:14:26.969Z,41.83
2022-11-21T22:16:55.052Z,38.63
2022-11-21T22:19:22.231Z,39.15
2022-11-21T22:21:49.544Z,37.85
2022-11-21T22:24:25.495Z,38.15
2022-11-21T22:26:56.638Z,46.20
2022-11-21T22:29:24.142Z,52.33
2022-11-21T22:31:51.679Z,82.28
2022-11-21T22:34:18.769Z,102.22
2022-11-21T22:36:49.200Z,116.63
2022-11-21T22:39:16.770Z,137.82
2022-11-21T22:41:44.064Z,75.65
2022-11-21T22:44:11.087Z,74.13
2022-11-21T22:46:38.606Z,88.95
2022-11-21T22:49:05.593Z,84.72
2022-11-21T22:51:33.008Z,84.53
2022-11-21T22:54:00.116Z,147.90
2022-11-21T22:56:28.003Z,55.70
2022-11-21T22:58:56.126Z,84.90
2022-11-21T23:01:25.758Z,68.95
2022-11-21T23:03:53.132Z,87.65
2022-11-21T23:06:23.816Z,60.95
2022-11-21T23:08:55.521Z,76.10
2022-11-21T23:11:26.249Z,78.55
2022-11-21T23:13:56.716Z,60.78
2022-11-21T23:16:24.576Z,61.10
2022-11-21T23:18:53.607Z,66.57
2022-11-21T23:21:21.479Z,59.45
2022-11-21T23:23:48.710Z,86.00
2022-11-21T23:26:16.004Z,59.15
2022-11-21T23:28:43.059Z,50.08
2022-11-21T23:31:10.591Z,57.00
2022-11-21T23:33:37.944Z,63.38
2022-11-21T23:36:05.714Z,68.60
2022-11-21T23:38:32.780Z,78.70
2022-11-21T23:41:00.126Z,67.50
2022-11-21T23:43:27.385Z,87.95
2022-11-21T23:45:54.984Z,71.82
2022-11-21T23:48:24.096Z,62.05
2022-11-21T23:50:52.034Z,54.33
2022-11-21T23:53:19.536Z,78.03
2022-11-21T23:55:47.217Z,46.92
2022-11-21T23:58:14.663Z,75.57
